sensor_id;sensor_type;location;lat;lon;timestamp;temperature;humidity
16140;DHT22;8175;49.326;12.690;2023-02-01T00:01:55;1.70;99.90
16140;DHT22;8175;49.326;12.690;2023-02-01T00:04:21;1.60;99.90
16140;DHT22;8175;49.326;12.690;2023-02-01T00:06:46;1.60;99.90
16140;DHT22;8175;49.326;12.690;2023-02-01T00:09:12;1.70;99.90
16140;DHT22;8175;49.326;12.690;2023-02-01T00:11:38;1.70;99.90
16140;DHT22;8175;49.326;12.690;2023-02-01T00:14:04;1.70;99.90
16140;DHT22;8175;49.326;12.690;2023-02-01T00:16:30;1.70;99.90
16140;DHT22;8175;49.326;12.690;2023-02-01T00:19:05;1.70;99.90
16140;DHT22;8175;49.326;12.690;2023-02-01T00:21:31;1.70;99.90
16140;DHT22;8175;49.326;12.690;2023-02-01T00:23:58;1.70;99.90
16140;DHT22;8175;49.326;12.690;2023-02-01T00:26:37;1.70;99.90
16140;DHT22;8175;49.326;12.690;2023-02-01T00:29:05;1.70;99.90
16140;DHT22;8175;49.326;12.690;2023-02-01T00:31:32;1.70;99.90
16140;DHT22;8175;49.326;12.690;2023-02-01T00:33:58;1.70;99.90
16140;DHT22;8175;49.326;12.690;2023-02-01T00:36:23;1.70;99.90
16140;DHT22;8175;49.326;12.690;2023-02-01T00:38:50;1.70;99.90
16140;DHT22;8175;49.326;12.690;2023-02-01T00:41:18;1.70;99.90
16140;DHT22;8175;49.326;12.690;2023-02-01T00:43:44;1.70;99.90
16140;DHT22;8175;49.326;12.690;2023-02-01T00:46:12;1.70;99.90
16140;DHT22;8175;49.326;12.690;2023-02-01T00:48:38;1.80;99.90
16140;DHT22;8175;49.326;12.690;2023-02-01T00:51:07;1.80;99.90
16140;DHT22;8175;49.326;12.690;2023-02-01T00:53:34;1.70;99.90
16140;DHT22;8175;49.326;12.690;2023-02-01T00:56:00;1.70;99.90
16140;DHT22;8175;49.326;12.690;2023-02-01T00:58:26;1.80;99.90
16140;DHT22;8175;49.326;12.690;2023-02-01T01:01:16;1.80;99.90
16140;DHT22;8175;49.326;12.690;2023-02-01T01:03:44;1.80;99.90
16140;DHT22;8175;49.326;12.690;2023-02-01T01:06:12;1.80;99.90
16140;DHT22;8175;49.326;12.690;2023-02-01T01:08:38;1.80;99.90
16140;DHT22;8175;49.326;12.690;2023-02-01T01:13:37;1.80;99.90
16140;DHT22;8175;49.326;12.690;2023-02-01T01:16:05;1.80;99.90
16140;DHT22;8175;49.326;12.690;2023-02-01T01:18:32;1.80;99.90
16140;DHT22;8175;49.326;12.690;2023-02-01T01:20:59;1.80;99.90
16140;DHT22;8175;49.326;12.690;2023-02-01T01:23:25;1.80;99.90
16140;DHT22;8175;49.326;12.690;2023-02-01T01:25:51;1.80;99.90
16140;DHT22;8175;49.326;12.690;2023-02-01T01:28:17;1.70;99.90
16140;DHT22;8175;49.326;12.690;2023-02-01T01:30:43;1.80;99.90
16140;DHT22;8175;49.326;12.690;2023-02-01T01:33:09;1.80;99.90
16140;DHT22;8175;49.326;12.690;2023-02-01T01:35:35;1.80;99.90
16140;DHT22;8175;49.326;12.690;2023-02-01T01:38:01;1.80;99.90
16140;DHT22;8175;49.326;12.690;2023-02-01T01:40:27;1.80;99.90
16140;DHT22;8175;49.326;12.690;2023-02-01T01:42:53;1.80;99.90
16140;DHT22;8175;49.326;12.690;2023-02-01T01:48:02;1.80;99.90
16140;DHT22;8175;49.326;12.690;2023-02-01T01:50:44;1.80;99.90
16140;DHT22;8175;49.326;12.690;2023-02-01T01:53:16;1.80;99.90
16140;DHT22;8175;49.326;12.690;2023-02-01T01:55:44;1.80;99.90
16140;DHT22;8175;49.326;12.690;2023-02-01T01:58:24;1.80;99.90
16140;DHT22;8175;49.326;12.690;2023-02-01T02:00:50;1.80;99.90
16140;DHT22;8175;49.326;12.690;2023-02-01T02:03:23;1.80;99.90
16140;DHT22;8175;49.326;12.690;2023-02-01T02:05:52;1.80;99.90
16140;DHT22;8175;49.326;12.690;2023-02-01T02:08:19;1.70;99.90
16140;DHT22;8175;49.326;12.690;2023-02-01T02:10:49;1.60;99.90
16140;DHT22;8175;49.326;12.690;2023-02-01T02:13:41;1.60;99.90
16140;DHT22;8175;49.326;12.690;2023-02-01T02:24:34;1.70;99.90
16140;DHT22;8175;49.326;12.690;2023-02-01T02:36:16;1.80;99.90
16140;DHT22;8175;49.326;12.690;2023-02-01T02:41:16;1.80;99.90
16140;DHT22;8175;49.326;12.690;2023-02-01T02:47:15;1.90;99.90
16140;DHT22;8175;49.326;12.690;2023-02-01T02:50:11;1.90;99.90
16140;DHT22;8175;49.326;12.690;2023-02-01T02:53:04;1.90;99.90
16140;DHT22;8175;49.326;12.690;2023-02-01T02:55:52;2.00;99.90
16140;DHT22;8175;49.326;12.690;2023-02-01T02:58:19;2.00;99.90
16140;DHT22;8175;49.326;12.690;2023-02-01T03:01:03;2.00;99.90
16140;DHT22;8175;49.326;12.690;2023-02-01T03:03:48;2.00;99.90
16140;DHT22;8175;49.326;12.690;2023-02-01T03:06:33;2.00;99.90
16140;DHT22;8175;49.326;12.690;2023-02-01T03:09:02;1.90;99.90
16140;DHT22;8175;49.326;12.690;2023-02-01T03:11:31;1.90;99.90
16140;DHT22;8175;49.326;12.690;2023-02-01T03:14:18;1.90;99.90
16140;DHT22;8175;49.326;12.690;2023-02-01T03:16:50;1.90;99.90
16140;DHT22;8175;49.326;12.690;2023-02-01T03:19:24;1.90;99.90
16140;DHT22;8175;49.326;12.690;2023-02-01T03:21:55;1.90;99.90
16140;DHT22;8175;49.326;12.690;2023-02-01T03:24:34;1.80;99.90
16140;DHT22;8175;49.326;12.690;2023-02-01T03:27:16;1.80;99.90
16140;DHT22;8175;49.326;12.690;2023-02-01T03:30:05;1.80;99.90
16140;DHT22;8175;49.326;12.690;2023-02-01T03:32:33;1.80;99.90
16140;DHT22;8175;49.326;12.690;2023-02-01T03:35:23;1.90;99.90
16140;DHT22;8175;49.326;12.690;2023-02-01T03:37:53;1.80;99.90
16140;DHT22;8175;49.326;12.690;2023-02-01T03:40:22;1.80;99.90
16140;DHT22;8175;49.326;12.690;2023-02-01T03:42:52;1.90;99.90
16140;DHT22;8175;49.326;12.690;2023-02-01T03:45:24;1.90;99.90
16140;DHT22;8175;49.326;12.690;2023-02-01T03:47:55;1.90;99.90
16140;DHT22;8175;49.326;12.690;2023-02-01T03:50:23;2.00;99.90
16140;DHT22;8175;49.326;12.690;2023-02-01T03:53:13;2.00;99.90
16140;DHT22;8175;49.326;12.690;2023-02-01T03:55:42;1.90;99.90
16140;DHT22;8175;49.326;12.690;2023-02-01T03:58:13;2.00;99.90
16140;DHT22;8175;49.326;12.690;2023-02-01T04:00:39;2.00;99.90
16140;DHT22;8175;49.326;12.690;2023-02-01T04:03:06;2.10;99.90
16140;DHT22;8175;49.326;12.690;2023-02-01T04:05:32;2.00;99.90
16140;DHT22;8175;49.326;12.690;2023-02-01T04:07:58;2.10;99.90
16140;DHT22;8175;49.326;12.690;2023-02-01T04:10:24;2.10;99.90
16140;DHT22;8175;49.326;12.690;2023-02-01T04:12:50;2.10;99.90
16140;DHT22;8175;49.326;12.690;2023-02-01T04:15:17;2.10;99.90
16140;DHT22;8175;49.326;12.690;2023-02-01T04:17:42;2.10;99.90
16140;DHT22;8175;49.326;12.690;2023-02-01T04:20:09;2.10;99.90
16140;DHT22;8175;49.326;12.690;2023-02-01T04:22:34;2.10;99.90
16140;DHT22;8175;49.326;12.690;2023-02-01T04:25:00;2.20;99.90
16140;DHT22;8175;49.326;12.690;2023-02-01T04:27:26;2.20;99.90
16140;DHT22;8175;49.326;12.690;2023-02-01T04:29:52;2.20;99.90
16140;DHT22;8175;49.326;12.690;2023-02-01T04:32:18;2.20;99.90
16140;DHT22;8175;49.326;12.690;2023-02-01T04:34:45;2.20;99.90
16140;DHT22;8175;49.326;12.690;2023-02-01T04:37:11;2.10;99.90
16140;DHT22;8175;49.326;12.690;2023-02-01T04:39:36;2.20;99.90
16140;DHT22;8175;49.326;12.690;2023-02-01T04:42:02;2.20;99.90
16140;DHT22;8175;49.326;12.690;2023-02-01T04:44:28;2.20;99.90
16140;DHT22;8175;49.326;12.690;2023-02-01T04:46:54;2.10;99.90
16140;DHT22;8175;49.326;12.690;2023-02-01T04:49:19;2.10;99.90
16140;DHT22;8175;49.326;12.690;2023-02-01T04:51:47;2.00;99.90
16140;DHT22;8175;49.326;12.690;2023-02-01T04:54:13;1.90;99.90
16140;DHT22;8175;49.326;12.690;2023-02-01T04:56:39;1.90;99.90
16140;DHT22;8175;49.326;12.690;2023-02-01T04:59:05;1.90;99.90
16140;DHT22;8175;49.326;12.690;2023-02-01T05:01:31;1.90;99.90
16140;DHT22;8175;49.326;12.690;2023-02-01T05:03:56;1.90;99.90
16140;DHT22;8175;49.326;12.690;2023-02-01T05:06:22;1.90;99.90
16140;DHT22;8175;49.326;12.690;2023-02-01T05:08:48;1.90;99.90
16140;DHT22;8175;49.326;12.690;2023-02-01T05:11:14;1.90;99.90
16140;DHT22;8175;49.326;12.690;2023-02-01T05:13:59;1.90;99.90
16140;DHT22;8175;49.326;12.690;2023-02-01T05:16:25;1.80;99.90
16140;DHT22;8175;49.326;12.690;2023-02-01T05:18:50;1.90;99.90
16140;DHT22;8175;49.326;12.690;2023-02-01T05:21:16;1.90;99.90
16140;DHT22;8175;49.326;12.690;2023-02-01T05:23:42;1.90;99.90
16140;DHT22;8175;49.326;12.690;2023-02-01T05:26:27;1.90;99.90
16140;DHT22;8175;49.326;12.690;2023-02-01T05:28:52;1.90;99.90
16140;DHT22;8175;49.326;12.690;2023-02-01T05:31:18;1.90;99.90
16140;DHT22;8175;49.326;12.690;2023-02-01T05:33:44;1.90;99.90
16140;DHT22;8175;49.326;12.690;2023-02-01T05:36:10;1.90;99.90
16140;DHT22;8175;49.326;12.690;2023-02-01T05:38:35;1.90;99.90
16140;DHT22;8175;49.326;12.690;2023-02-01T05:41:01;1.90;99.90
16140;DHT22;8175;49.326;12.690;2023-02-01T05:43:27;2.00;99.90
16140;DHT22;8175;49.326;12.690;2023-02-01T05:45:53;1.80;99.90
16140;DHT22;8175;49.326;12.690;2023-02-01T05:48:18;1.80;99.90
16140;DHT22;8175;49.326;12.690;2023-02-01T05:50:44;1.80;99.90
16140;DHT22;8175;49.326;12.690;2023-02-01T05:53:10;1.90;99.90
16140;DHT22;8175;49.326;12.690;2023-02-01T05:55:36;1.80;99.90
16140;DHT22;8175;49.326;12.690;2023-02-01T05:58:02;1.70;99.90
16140;DHT22;8175;49.326;12.690;2023-02-01T06:00:27;1.60;99.90
16140;DHT22;8175;49.326;12.690;2023-02-01T06:02:53;1.60;99.90
16140;DHT22;8175;49.326;12.690;2023-02-01T06:05:19;1.60;99.90
16140;DHT22;8175;49.326;12.690;2023-02-01T06:07:44;1.50;99.90
16140;DHT22;8175;49.326;12.690;2023-02-01T06:10:10;1.50;99.90
16140;DHT22;8175;49.326;12.690;2023-02-01T06:12:36;1.50;99.90
16140;DHT22;8175;49.326;12.690;2023-02-01T06:15:02;1.60;99.90
16140;DHT22;8175;49.326;12.690;2023-02-01T06:17:27;1.60;99.90
16140;DHT22;8175;49.326;12.690;2023-02-01T06:19:53;1.60;99.90
16140;DHT22;8175;49.326;12.690;2023-02-01T06:22:19;1.60;99.90
16140;DHT22;8175;49.326;12.690;2023-02-01T06:24:44;1.60;99.90
16140;DHT22;8175;49.326;12.690;2023-02-01T06:27:10;1.60;99.90
16140;DHT22;8175;49.326;12.690;2023-02-01T06:29:36;1.60;99.90
16140;DHT22;8175;49.326;12.690;2023-02-01T06:32:02;1.60;99.90
16140;DHT22;8175;49.326;12.690;2023-02-01T06:34:28;1.70;99.90
16140;DHT22;8175;49.326;12.690;2023-02-01T06:36:54;1.70;99.90
16140;DHT22;8175;49.326;12.690;2023-02-01T06:39:20;1.70;99.90
16140;DHT22;8175;49.326;12.690;2023-02-01T06:41:47;1.70;99.90
16140;DHT22;8175;49.326;12.690;2023-02-01T06:44:14;1.70;99.90
16140;DHT22;8175;49.326;12.690;2023-02-01T06:46:39;1.80;99.90
16140;DHT22;8175;49.326;12.690;2023-02-01T06:49:05;1.70;99.90
16140;DHT22;8175;49.326;12.690;2023-02-01T06:51:31;1.70;99.90
16140;DHT22;8175;49.326;12.690;2023-02-01T06:53:57;1.70;99.90
16140;DHT22;8175;49.326;12.690;2023-02-01T06:56:23;1.70;99.90
16140;DHT22;8175;49.326;12.690;2023-02-01T06:58:49;1.70;99.90
16140;DHT22;8175;49.326;12.690;2023-02-01T07:01:15;1.60;99.90
16140;DHT22;8175;49.326;12.690;2023-02-01T07:03:41;1.80;99.90
16140;DHT22;8175;49.326;12.690;2023-02-01T07:06:07;1.70;99.90
16140;DHT22;8175;49.326;12.690;2023-02-01T07:08:34;1.70;99.90
16140;DHT22;8175;49.326;12.690;2023-02-01T07:11:05;1.80;99.90
16140;DHT22;8175;49.326;12.690;2023-02-01T07:13:31;1.70;99.90
16140;DHT22;8175;49.326;12.690;2023-02-01T07:16:21;1.80;99.90
16140;DHT22;8175;49.326;12.690;2023-02-01T07:18:47;1.70;99.90
16140;DHT22;8175;49.326;12.690;2023-02-01T07:21:13;1.80;99.90
16140;DHT22;8175;49.326;12.690;2023-02-01T07:23:38;1.80;99.90
16140;DHT22;8175;49.326;12.690;2023-02-01T07:26:06;1.80;99.90
16140;DHT22;8175;49.326;12.690;2023-02-01T07:28:34;1.80;99.90
16140;DHT22;8175;49.326;12.690;2023-02-01T07:31:08;1.80;99.90
16140;DHT22;8175;49.326;12.690;2023-02-01T07:33:35;1.80;99.90
16140;DHT22;8175;49.326;12.690;2023-02-01T07:36:03;1.90;99.90
16140;DHT22;8175;49.326;12.690;2023-02-01T07:38:29;1.90;99.90
16140;DHT22;8175;49.326;12.690;2023-02-01T07:41:03;1.90;99.90
16140;DHT22;8175;49.326;12.690;2023-02-01T07:43:29;1.90;99.90
16140;DHT22;8175;49.326;12.690;2023-02-01T07:45:55;1.90;99.90
16140;DHT22;8175;49.326;12.690;2023-02-01T07:48:23;1.90;99.90
16140;DHT22;8175;49.326;12.690;2023-02-01T07:51:00;1.90;99.90
16140;DHT22;8175;49.326;12.690;2023-02-01T07:53:26;1.90;99.90
16140;DHT22;8175;49.326;12.690;2023-02-01T07:55:53;1.90;99.90
16140;DHT22;8175;49.326;12.690;2023-02-01T07:58:19;1.90;99.90
16140;DHT22;8175;49.326;12.690;2023-02-01T08:00:44;1.90;99.90
16140;DHT22;8175;49.326;12.690;2023-02-01T08:03:29;1.90;99.90
16140;DHT22;8175;49.326;12.690;2023-02-01T08:05:55;1.90;99.90
16140;DHT22;8175;49.326;12.690;2023-02-01T08:08:21;1.90;99.90
16140;DHT22;8175;49.326;12.690;2023-02-01T08:10:47;1.90;99.90
16140;DHT22;8175;49.326;12.690;2023-02-01T08:13:12;1.90;99.90
16140;DHT22;8175;49.326;12.690;2023-02-01T08:15:38;1.90;99.90
16140;DHT22;8175;49.326;12.690;2023-02-01T08:18:04;1.90;99.90
16140;DHT22;8175;49.326;12.690;2023-02-01T08:20:29;1.90;99.90
16140;DHT22;8175;49.326;12.690;2023-02-01T08:22:55;1.90;99.90
16140;DHT22;8175;49.326;12.690;2023-02-01T08:25:22;1.90;99.90
16140;DHT22;8175;49.326;12.690;2023-02-01T08:27:47;1.90;99.90
16140;DHT22;8175;49.326;12.690;2023-02-01T08:30:13;1.90;99.90
16140;DHT22;8175;49.326;12.690;2023-02-01T08:32:39;1.90;99.90
16140;DHT22;8175;49.326;12.690;2023-02-01T08:35:05;2.00;99.90
16140;DHT22;8175;49.326;12.690;2023-02-01T08:37:31;1.90;99.90
16140;DHT22;8175;49.326;12.690;2023-02-01T08:39:57;2.00;99.90
16140;DHT22;8175;49.326;12.690;2023-02-01T08:42:23;2.00;99.90
16140;DHT22;8175;49.326;12.690;2023-02-01T08:45:08;2.00;99.90
16140;DHT22;8175;49.326;12.690;2023-02-01T08:47:34;1.90;99.90
16140;DHT22;8175;49.326;12.690;2023-02-01T08:50:00;2.00;99.90
16140;DHT22;8175;49.326;12.690;2023-02-01T08:52:26;2.00;99.90
16140;DHT22;8175;49.326;12.690;2023-02-01T08:54:52;2.10;99.90
16140;DHT22;8175;49.326;12.690;2023-02-01T08:57:17;2.10;99.90
16140;DHT22;8175;49.326;12.690;2023-02-01T08:59:43;2.10;99.90
16140;DHT22;8175;49.326;12.690;2023-02-01T09:02:16;2.20;99.90
16140;DHT22;8175;49.326;12.690;2023-02-01T09:04:41;2.20;99.90
16140;DHT22;8175;49.326;12.690;2023-02-01T09:07:10;2.30;99.90
16140;DHT22;8175;49.326;12.690;2023-02-01T09:09:36;2.50;99.90
16140;DHT22;8175;49.326;12.690;2023-02-01T09:12:03;2.50;99.90
16140;DHT22;8175;49.326;12.690;2023-02-01T09:14:29;2.50;99.90
16140;DHT22;8175;49.326;12.690;2023-02-01T09:16:54;2.50;99.90
16140;DHT22;8175;49.326;12.690;2023-02-01T09:19:20;2.40;99.90
16140;DHT22;8175;49.326;12.690;2023-02-01T09:21:46;2.40;99.90
16140;DHT22;8175;49.326;12.690;2023-02-01T09:24:11;2.40;99.90
16140;DHT22;8175;49.326;12.690;2023-02-01T09:26:37;2.40;99.90
16140;DHT22;8175;49.326;12.690;2023-02-01T09:29:03;2.50;99.90
16140;DHT22;8175;49.326;12.690;2023-02-01T09:31:31;2.50;99.90
16140;DHT22;8175;49.326;12.690;2023-02-01T09:33:57;2.60;99.90
16140;DHT22;8175;49.326;12.690;2023-02-01T09:36:23;2.70;99.90
16140;DHT22;8175;49.326;12.690;2023-02-01T09:38:49;3.00;99.90
16140;DHT22;8175;49.326;12.690;2023-02-01T09:44:27;3.30;99.90
16140;DHT22;8175;49.326;12.690;2023-02-01T09:46:58;3.20;99.90
16140;DHT22;8175;49.326;12.690;2023-02-01T09:49:33;3.10;99.90
16140;DHT22;8175;49.326;12.690;2023-02-01T09:52:02;3.10;99.90
16140;DHT22;8175;49.326;12.690;2023-02-01T09:54:40;3.10;99.90
16140;DHT22;8175;49.326;12.690;2023-02-01T09:57:18;3.20;99.90
16140;DHT22;8175;49.326;12.690;2023-02-01T09:59:49;3.20;99.90
16140;DHT22;8175;49.326;12.690;2023-02-01T10:02:25;3.20;99.90
16140;DHT22;8175;49.326;12.690;2023-02-01T10:04:55;3.10;99.90
16140;DHT22;8175;49.326;12.690;2023-02-01T10:09:59;3.00;99.90
16140;DHT22;8175;49.326;12.690;2023-02-01T10:12:54;2.90;99.90
16140;DHT22;8175;49.326;12.690;2023-02-01T10:26:27;2.80;99.90
16140;DHT22;8175;49.326;12.690;2023-02-01T10:28:57;2.90;99.90
16140;DHT22;8175;49.326;12.690;2023-02-01T10:31:30;3.00;99.90
16140;DHT22;8175;49.326;12.690;2023-02-01T10:33:58;3.10;99.90
16140;DHT22;8175;49.326;12.690;2023-02-01T10:36:34;3.10;99.90
16140;DHT22;8175;49.326;12.690;2023-02-01T10:39:04;3.20;99.90
16140;DHT22;8175;49.326;12.690;2023-02-01T10:41:35;3.20;99.90
16140;DHT22;8175;49.326;12.690;2023-02-01T10:44:07;3.30;99.90
16140;DHT22;8175;49.326;12.690;2023-02-01T10:46:35;3.40;99.90
16140;DHT22;8175;49.326;12.690;2023-02-01T10:49:03;3.40;99.90
16140;DHT22;8175;49.326;12.690;2023-02-01T10:51:41;3.60;99.90
16140;DHT22;8175;49.326;12.690;2023-02-01T10:54:22;3.90;99.90
16140;DHT22;8175;49.326;12.690;2023-02-01T10:56:57;4.20;99.90
16140;DHT22;8175;49.326;12.690;2023-02-01T10:59:25;4.60;99.90
16140;DHT22;8175;49.326;12.690;2023-02-01T11:02:05;4.70;99.90
16140;DHT22;8175;49.326;12.690;2023-02-01T11:04:37;4.60;99.90
16140;DHT22;8175;49.326;12.690;2023-02-01T11:09:41;4.70;99.90
16140;DHT22;8175;49.326;12.690;2023-02-01T11:12:28;5.50;99.90
16140;DHT22;8175;49.326;12.690;2023-02-01T11:15:23;6.50;99.90
16140;DHT22;8175;49.326;12.690;2023-02-01T11:17:51;6.90;99.90
16140;DHT22;8175;49.326;12.690;2023-02-01T11:20:18;7.60;99.90
16140;DHT22;8175;49.326;12.690;2023-02-01T11:22:52;8.80;99.90
16140;DHT22;8175;49.326;12.690;2023-02-01T11:25:18;9.00;99.90
16140;DHT22;8175;49.326;12.690;2023-02-01T11:27:44;8.90;99.90
16140;DHT22;8175;49.326;12.690;2023-02-01T11:30:16;8.20;99.90
16140;DHT22;8175;49.326;12.690;2023-02-01T11:32:44;7.10;99.90
16140;DHT22;8175;49.326;12.690;2023-02-01T11:35:15;6.60;99.90
16140;DHT22;8175;49.326;12.690;2023-02-01T11:37:53;6.60;99.90
16140;DHT22;8175;49.326;12.690;2023-02-01T11:45:58;5.70;99.90
16140;DHT22;8175;49.326;12.690;2023-02-01T11:48:26;5.70;99.90
16140;DHT22;8175;49.326;12.690;2023-02-01T11:56:44;4.80;99.90
16140;DHT22;8175;49.326;12.690;2023-02-01T11:59:48;4.50;99.90
16140;DHT22;8175;49.326;12.690;2023-02-01T12:02:26;4.50;99.90
16140;DHT22;8175;49.326;12.690;2023-02-01T12:07:52;5.50;99.90
16140;DHT22;8175;49.326;12.690;2023-02-01T12:32:59;4.50;99.90
16140;DHT22;8175;49.326;12.690;2023-02-01T12:38:44;4.10;99.90
16140;DHT22;8175;49.326;12.690;2023-02-01T12:44:02;4.20;99.90
16140;DHT22;8175;49.326;12.690;2023-02-01T12:46:40;4.20;99.90
16140;DHT22;8175;49.326;12.690;2023-02-01T12:52:37;4.10;99.90
16140;DHT22;8175;49.326;12.690;2023-02-01T13:01:02;4.00;99.90
16140;DHT22;8175;49.326;12.690;2023-02-01T13:06:29;3.80;99.90
16140;DHT22;8175;49.326;12.690;2023-02-01T13:11:57;3.60;99.90
16140;DHT22;8175;49.326;12.690;2023-02-01T13:17:08;3.60;99.90
16140;DHT22;8175;49.326;12.690;2023-02-01T13:22:30;3.60;99.90
16140;DHT22;8175;49.326;12.690;2023-02-01T13:25:10;3.50;99.90
16140;DHT22;8175;49.326;12.690;2023-02-01T13:27:37;3.50;99.90
16140;DHT22;8175;49.326;12.690;2023-02-01T13:30:16;3.50;99.90
16140;DHT22;8175;49.326;12.690;2023-02-01T13:38:14;3.30;99.90
16140;DHT22;8175;49.326;12.690;2023-02-01T13:41:42;3.40;99.90
16140;DHT22;8175;49.326;12.690;2023-02-01T13:43:44;3.40;99.90
16140;DHT22;8175;49.326;12.690;2023-02-01T13:46:13;3.40;99.90
16140;DHT22;8175;49.326;12.690;2023-02-01T13:51:12;3.40;99.90
16140;DHT22;8175;49.326;12.690;2023-02-01T13:53:48;3.50;99.90
16140;DHT22;8175;49.326;12.690;2023-02-01T13:56:17;3.50;99.90
16140;DHT22;8175;49.326;12.690;2023-02-01T13:58:46;3.50;99.90
16140;DHT22;8175;49.326;12.690;2023-02-01T14:03:54;3.50;99.90
16140;DHT22;8175;49.326;12.690;2023-02-01T14:11:52;3.30;99.90
16140;DHT22;8175;49.326;12.690;2023-02-01T14:17:29;3.20;99.90
16140;DHT22;8175;49.326;12.690;2023-02-01T14:23:20;3.20;99.90
16140;DHT22;8175;49.326;12.690;2023-02-01T14:25:48;3.10;99.90
16140;DHT22;8175;49.326;12.690;2023-02-01T14:28:28;3.10;99.90
16140;DHT22;8175;49.326;12.690;2023-02-01T14:30:57;3.00;99.90
16140;DHT22;8175;49.326;12.690;2023-02-01T14:33:27;3.00;99.90
16140;DHT22;8175;49.326;12.690;2023-02-01T14:36:07;2.90;99.90
16140;DHT22;8175;49.326;12.690;2023-02-01T14:38:35;2.70;99.90
16140;DHT22;8175;49.326;12.690;2023-02-01T14:41:34;2.30;99.90
16140;DHT22;8175;49.326;12.690;2023-02-01T14:49:37;2.00;99.90
16140;DHT22;8175;49.326;12.690;2023-02-01T14:52:11;2.00;99.90
16140;DHT22;8175;49.326;12.690;2023-02-01T14:54:39;2.00;99.90
16140;DHT22;8175;49.326;12.690;2023-02-01T14:57:08;2.00;99.90
16140;DHT22;8175;49.326;12.690;2023-02-01T14:59:39;2.10;99.90
16140;DHT22;8175;49.326;12.690;2023-02-01T15:02:18;2.10;99.90
16140;DHT22;8175;49.326;12.690;2023-02-01T15:04:46;2.20;99.90
16140;DHT22;8175;49.326;12.690;2023-02-01T15:07:13;2.20;99.90
16140;DHT22;8175;49.326;12.690;2023-02-01T15:09:45;2.30;99.90
16140;DHT22;8175;49.326;12.690;2023-02-01T15:14:42;2.20;99.90
16140;DHT22;8175;49.326;12.690;2023-02-01T15:19:57;2.20;99.90
16140;DHT22;8175;49.326;12.690;2023-02-01T15:22:23;2.20;99.90
16140;DHT22;8175;49.326;12.690;2023-02-01T15:24:58;2.20;99.90
16140;DHT22;8175;49.326;12.690;2023-02-01T15:27:26;2.20;99.90
16140;DHT22;8175;49.326;12.690;2023-02-01T15:29:52;2.20;99.90
16140;DHT22;8175;49.326;12.690;2023-02-01T15:34:58;2.30;99.90
16140;DHT22;8175;49.326;12.690;2023-02-01T15:37:26;2.30;99.90
16140;DHT22;8175;49.326;12.690;2023-02-01T15:42:39;2.40;99.90
16140;DHT22;8175;49.326;12.690;2023-02-01T15:45:24;2.50;99.90
16140;DHT22;8175;49.326;12.690;2023-02-01T15:47:52;2.40;99.90
16140;DHT22;8175;49.326;12.690;2023-02-01T15:50:19;2.50;99.90
16140;DHT22;8175;49.326;12.690;2023-02-01T15:52:48;2.50;99.90
16140;DHT22;8175;49.326;12.690;2023-02-01T15:55:36;2.50;99.90
16140;DHT22;8175;49.326;12.690;2023-02-01T16:00:47;2.50;99.90
16140;DHT22;8175;49.326;12.690;2023-02-01T16:05:58;2.50;99.90
16140;DHT22;8175;49.326;12.690;2023-02-01T16:08:27;2.60;99.90
16140;DHT22;8175;49.326;12.690;2023-02-01T16:11:00;2.60;99.90
16140;DHT22;8175;49.326;12.690;2023-02-01T16:13:27;2.60;99.90
16140;DHT22;8175;49.326;12.690;2023-02-01T16:15:52;2.60;99.90
16140;DHT22;8175;49.326;12.690;2023-02-01T16:18:18;2.50;99.90
16140;DHT22;8175;49.326;12.690;2023-02-01T16:20:44;2.50;99.90
16140;DHT22;8175;49.326;12.690;2023-02-01T16:23:10;2.50;99.90
16140;DHT22;8175;49.326;12.690;2023-02-01T16:25:37;2.60;99.90
16140;DHT22;8175;49.326;12.690;2023-02-01T16:28:03;2.60;99.90
16140;DHT22;8175;49.326;12.690;2023-02-01T16:30:31;2.50;99.90
16140;DHT22;8175;49.326;12.690;2023-02-01T16:33:00;2.50;99.90
16140;DHT22;8175;49.326;12.690;2023-02-01T16:35:35;2.60;99.90
16140;DHT22;8175;49.326;12.690;2023-02-01T16:38:05;2.60;99.90
16140;DHT22;8175;49.326;12.690;2023-02-01T16:40:41;2.60;99.90
16140;DHT22;8175;49.326;12.690;2023-02-01T16:43:18;2.70;99.90
16140;DHT22;8175;49.326;12.690;2023-02-01T16:45:46;2.70;99.90
16140;DHT22;8175;49.326;12.690;2023-02-01T16:48:23;2.70;99.90
16140;DHT22;8175;49.326;12.690;2023-02-01T16:50:55;2.70;99.90
16140;DHT22;8175;49.326;12.690;2023-02-01T16:53:23;2.60;99.90
16140;DHT22;8175;49.326;12.690;2023-02-01T16:55:49;2.60;99.90
16140;DHT22;8175;49.326;12.690;2023-02-01T16:58:19;2.60;99.90
16140;DHT22;8175;49.326;12.690;2023-02-01T17:00:45;2.70;99.90
16140;DHT22;8175;49.326;12.690;2023-02-01T17:03:11;2.60;99.90
16140;DHT22;8175;49.326;12.690;2023-02-01T17:05:43;2.60;99.90
16140;DHT22;8175;49.326;12.690;2023-02-01T17:08:11;2.60;99.90
16140;DHT22;8175;49.326;12.690;2023-02-01T17:10:37;2.60;99.90
16140;DHT22;8175;49.326;12.690;2023-02-01T17:13:03;2.60;99.90
16140;DHT22;8175;49.326;12.690;2023-02-01T17:15:32;2.60;99.90
16140;DHT22;8175;49.326;12.690;2023-02-01T17:18:00;2.70;99.90
16140;DHT22;8175;49.326;12.690;2023-02-01T17:20:29;2.80;99.90
16140;DHT22;8175;49.326;12.690;2023-02-01T17:22:57;2.80;99.90
16140;DHT22;8175;49.326;12.690;2023-02-01T17:25:30;2.80;99.90
16140;DHT22;8175;49.326;12.690;2023-02-01T17:27:55;2.80;99.90
16140;DHT22;8175;49.326;12.690;2023-02-01T17:30:21;2.80;99.90
16140;DHT22;8175;49.326;12.690;2023-02-01T17:32:47;2.80;99.90
16140;DHT22;8175;49.326;12.690;2023-02-01T17:35:21;2.80;99.90
16140;DHT22;8175;49.326;12.690;2023-02-01T17:37:48;2.80;99.90
16140;DHT22;8175;49.326;12.690;2023-02-01T17:40:14;2.80;99.90
16140;DHT22;8175;49.326;12.690;2023-02-01T17:42:40;2.80;99.90
16140;DHT22;8175;49.326;12.690;2023-02-01T17:47:41;2.80;99.90
16140;DHT22;8175;49.326;12.690;2023-02-01T17:50:07;2.70;99.90
16140;DHT22;8175;49.326;12.690;2023-02-01T17:52:33;2.50;99.90
16140;DHT22;8175;49.326;12.690;2023-02-01T17:55:00;2.40;99.90
16140;DHT22;8175;49.326;12.690;2023-02-01T17:57:28;2.40;99.90
16140;DHT22;8175;49.326;12.690;2023-02-01T17:59:53;2.30;99.90
16140;DHT22;8175;49.326;12.690;2023-02-01T18:02:21;2.20;99.90
16140;DHT22;8175;49.326;12.690;2023-02-01T18:04:49;2.20;99.90
16140;DHT22;8175;49.326;12.690;2023-02-01T18:07:15;2.10;99.90
16140;DHT22;8175;49.326;12.690;2023-02-01T18:09:41;2.10;99.90
16140;DHT22;8175;49.326;12.690;2023-02-01T18:12:14;2.00;99.90
16140;DHT22;8175;49.326;12.690;2023-02-01T18:14:42;2.10;99.90
16140;DHT22;8175;49.326;12.690;2023-02-01T18:17:08;2.00;99.90
16140;DHT22;8175;49.326;12.690;2023-02-01T18:19:34;2.00;99.90
16140;DHT22;8175;49.326;12.690;2023-02-01T18:22:01;2.00;99.90
16140;DHT22;8175;49.326;12.690;2023-02-01T18:24:27;2.00;99.90
16140;DHT22;8175;49.326;12.690;2023-02-01T18:26:54;1.90;99.90
16140;DHT22;8175;49.326;12.690;2023-02-01T18:29:20;1.90;99.90
16140;DHT22;8175;49.326;12.690;2023-02-01T18:31:47;1.90;99.90
16140;DHT22;8175;49.326;12.690;2023-02-01T18:34:14;1.90;99.90
16140;DHT22;8175;49.326;12.690;2023-02-01T18:36:49;2.10;99.90
16140;DHT22;8175;49.326;12.690;2023-02-01T18:39:16;2.10;99.90